Time,TemperatureF,DewpointF,PressureIn,WindDirection,WindDirectionDegrees,WindSpeedMPH,WindSpeedGustMPH,Humidity,HourlyPrecipIn,Conditions,Clouds,dailyrainin,SoftwareType,DateUTC
2013-08-18 00:00:00,62.8,62.8,30.22,NNW,348,0.0,0.0,100,0.07,,---,0.00,VWS V14.01,2013-08-18 04:00:00,
2013-08-18 00:01:00,62.8,62.8,30.22,NNW,348,0.0,0.0,100,0.07,,---,0.00,VWS V14.01,2013-08-18 04:01:00,
2013-08-18 00:06:00,62.8,62.8,30.22,NNW,348,0.0,0.0,100,0.08,,---,0.01,VWS V14.01,2013-08-18 04:06:00,
2013-08-18 00:11:00,62.8,62.8,30.22,NNW,348,0.0,0.0,100,0.10,,---,0.03,VWS V14.01,2013-08-18 04:11:00,
2013-08-18 00:16:00,62.8,62.8,30.22,NNW,348,0.0,0.0,100,0.08,,---,0.04,VWS V14.01,2013-08-18 04:16:00,
2013-08-18 00:21:00,62.8,62.8,30.22,NNW,348,0.0,0.0,100,0.09,,---,0.05,VWS V14.01,2013-08-18 04:21:00,
2013-08-18 00:26:00,62.8,62.8,30.22,NNW,348,0.0,0.0,100,0.11,,---,0.07,VWS V14.01,2013-08-18 04:26:00,
2013-08-18 00:31:00,62.8,62.8,30.22,NNW,348,0.0,0.0,100,0.12,,---,0.09,VWS V14.01,2013-08-18 04:31:00,
2013-08-18 00:36:00,62.8,62.8,30.21,NNW,348,0.0,0.0,100,0.14,,---,0.11,VWS V14.01,2013-08-18 04:36:00,
2013-08-18 00:41:00,62.8,62.8,30.21,NNW,348,0.0,0.0,100,0.18,,---,0.15,VWS V14.01,2013-08-18 04:41:00,
2013-08-18 00:46:00,62.8,62.8,30.21,NNW,348,0.0,0.0,100,0.17,,---,0.16,VWS V14.01,2013-08-18 04:46:00,
2013-08-18 00:51:00,62.8,62.8,30.21,NNW,348,0.0,0.0,100,0.18,,---,0.17,VWS V14.01,2013-08-18 04:51:00,
2013-08-18 00:56:00,62.7,62.7,30.21,NNW,348,0.0,0.0,100,0.20,,---,0.19,VWS V14.01,2013-08-18 04:56:00,
2013-08-18 01:01:00,62.7,62.7,30.21,NNW,348,0.0,0.0,100,0.19,,---,0.19,VWS V14.01,2013-08-18 05:01:00,
2013-08-18 01:06:00,62.7,62.7,30.20,NNW,348,0.0,0.0,100,0.20,,---,0.20,VWS V14.01,2013-08-18 05:06:00,
2013-08-18 01:11:00,62.7,62.7,30.20,NNW,348,0.0,0.0,100,0.21,,---,0.21,VWS V14.01,2013-08-18 05:11:00,
2013-08-18 01:16:00,62.7,62.7,30.20,NNW,348,0.0,0.0,100,0.18,,---,0.22,VWS V14.01,2013-08-18 05:16:00,
2013-08-18 01:21:00,62.7,62.7,30.20,NNW,348,0.0,0.0,100,0.18,,---,0.22,VWS V14.01,2013-08-18 05:21:00,
2013-08-18 01:26:00,62.7,62.7,30.20,NNW,348,0.0,0.0,100,0.19,,---,0.23,VWS V14.01,2013-08-18 05:26:00,
2013-08-18 01:31:00,62.7,62.7,30.20,NNW,348,0.0,0.0,100,0.14,,---,0.23,VWS V14.01,2013-08-18 05:31:00,
2013-08-18 01:36:00,62.7,62.7,30.20,NNW,348,0.0,0.0,100,0.14,,---,0.23,VWS V14.01,2013-08-18 05:36:00,
2013-08-18 01:41:00,62.7,62.7,30.20,NNW,348,0.0,0.0,100,0.15,,---,0.24,VWS V14.01,2013-08-18 05:41:00,
2013-08-18 01:46:00,62.7,62.7,30.19,NNW,348,0.0,0.0,100,0.10,,---,0.25,VWS V14.01,2013-08-18 05:46:00,
2013-08-18 01:51:00,62.7,62.7,30.19,NNW,348,0.0,0.0,100,0.10,,---,0.25,VWS V14.01,2013-08-18 05:51:00,
2013-08-18 01:56:00,62.7,62.7,30.19,NNW,348,0.0,0.0,100,0.11,,---,0.26,VWS V14.01,2013-08-18 05:56:00,
2013-08-18 02:01:00,62.7,62.7,30.19,NNW,348,0.0,0.0,100,0.07,,---,0.26,VWS V14.01,2013-08-18 06:01:00,
2013-08-18 02:06:00,62.7,62.7,30.19,NNW,348,0.0,0.0,100,0.08,,---,0.27,VWS V14.01,2013-08-18 06:06:00,
2013-08-18 02:11:00,62.7,62.7,30.19,NNW,348,0.0,0.0,100,0.08,,---,0.27,VWS V14.01,2013-08-18 06:11:00,
2013-08-18 02:16:00,62.7,62.7,30.19,NNW,348,0.0,0.0,100,0.06,,---,0.28,VWS V14.01,2013-08-18 06:16:00,
2013-08-18 02:21:00,62.7,62.7,30.19,NNW,348,0.0,0.0,100,0.06,,---,0.28,VWS V14.01,2013-08-18 06:21:00,
2013-08-18 02:26:00,62.6,62.6,30.19,NNW,348,0.0,0.0,100,0.07,,---,0.29,VWS V14.01,2013-08-18 06:26:00,
2013-08-18 02:31:00,62.6,62.6,30.18,NNW,348,0.0,0.0,100,0.06,,---,0.29,VWS V14.01,2013-08-18 06:31:00,
2013-08-18 02:36:00,62.6,62.6,30.18,NNW,348,0.0,0.0,100,0.06,,---,0.29,VWS V14.01,2013-08-18 06:36:00,
2013-08-18 02:41:00,62.6,62.6,30.18,NNW,348,0.0,0.0,100,0.06,,---,0.29,VWS V14.01,2013-08-18 06:41:00,
2013-08-18 02:46:00,62.5,62.5,30.18,NNW,348,0.0,0.0,100,0.04,,---,0.29,VWS V14.01,2013-08-18 06:46:00,
2013-08-18 02:51:00,62.5,62.5,30.18,NNW,348,0.0,0.0,100,0.04,,---,0.29,VWS V14.01,2013-08-18 06:51:00,
2013-08-18 02:56:00,62.5,62.5,30.18,NW,304,0.0,0.0,100,0.04,,---,0.29,VWS V14.01,2013-08-18 06:56:00,
2013-08-18 03:00:00,62.5,62.5,30.18,NW,304,0.0,1.0,100,0.03,,---,0.29,VWS V14.01,2013-08-18 07:00:00,
2013-08-18 03:05:00,62.5,62.5,30.18,NW,304,0.0,0.0,100,0.03,,---,0.29,VWS V14.01,2013-08-18 07:05:00,
2013-08-18 03:10:00,62.5,62.5,30.18,NW,304,0.0,0.0,100,0.03,,---,0.29,VWS V14.01,2013-08-18 07:10:00,
2013-08-18 03:15:00,62.5,62.5,30.17,NW,304,0.0,0.0,100,0.01,,---,0.29,VWS V14.01,2013-08-18 07:15:00,
2013-08-18 03:20:00,62.5,62.5,30.18,NW,304,0.0,0.0,100,0.01,,---,0.29,VWS V14.01,2013-08-18 07:20:00,
2013-08-18 03:25:00,62.5,62.5,30.17,NW,304,0.0,0.0,100,0.01,,---,0.29,VWS V14.01,2013-08-18 07:25:00,
2013-08-18 03:30:00,62.5,62.5,30.17,NW,304,0.0,0.0,100,0.00,,---,0.29,VWS V14.01,2013-08-18 07:30:00,
2013-08-18 03:35:00,62.5,62.5,30.18,NW,304,0.0,1.0,100,0.00,,---,0.29,VWS V14.01,2013-08-18 07:35:00,
2013-08-18 03:40:00,62.5,62.5,30.18,NW,304,0.0,0.0,100,0.01,,---,0.30,VWS V14.01,2013-08-18 07:40:00,
2013-08-18 03:45:00,62.5,62.5,30.18,NW,304,0.0,0.0,100,0.01,,---,0.30,VWS V14.01,2013-08-18 07:45:00,
2013-08-18 03:50:00,62.5,62.5,30.17,NW,304,0.0,0.0,100,0.01,,---,0.30,VWS V14.01,2013-08-18 07:50:00,
2013-08-18 03:55:00,62.5,62.5,30.18,NW,304,0.0,0.0,100,0.02,,---,0.31,VWS V14.01,2013-08-18 07:55:00,
2013-08-18 04:00:00,62.5,62.5,30.18,NW,304,0.0,0.0,100,0.03,,---,0.32,VWS V14.01,2013-08-18 08:00:00,
2013-08-18 04:05:00,62.6,62.6,30.17,NW,304,0.0,0.0,100,0.04,,---,0.33,VWS V14.01,2013-08-18 08:05:00,
2013-08-18 04:10:00,62.6,62.6,30.17,NW,304,0.0,0.0,100,0.04,,---,0.33,VWS V14.01,2013-08-18 08:10:00,
2013-08-18 04:15:00,62.6,62.6,30.17,NW,304,0.0,0.0,100,0.05,,---,0.34,VWS V14.01,2013-08-18 08:15:00,
2013-08-18 04:20:00,62.6,62.6,30.17,NW,304,0.0,0.0,100,0.06,,---,0.35,VWS V14.01,2013-08-18 08:20:00,
2013-08-18 04:25:00,62.6,62.6,30.17,NW,304,0.0,0.0,100,0.06,,---,0.35,VWS V14.01,2013-08-18 08:25:00,
2013-08-18 04:30:00,62.6,62.6,30.18,NW,304,0.0,0.0,100,0.07,,---,0.36,VWS V14.01,2013-08-18 08:30:00,
2013-08-18 04:35:00,62.6,62.6,30.18,NW,304,0.0,0.0,100,0.08,,---,0.37,VWS V14.01,2013-08-18 08:35:00,
2013-08-18 04:40:00,62.6,62.6,30.18,NW,304,0.0,0.0,100,0.08,,---,0.37,VWS V14.01,2013-08-18 08:40:00,
2013-08-18 04:45:00,62.7,62.7,30.18,NW,304,0.0,0.0,100,0.08,,---,0.38,VWS V14.01,2013-08-18 08:45:00,
2013-08-18 04:50:00,62.6,62.6,30.18,NW,304,0.0,0.0,100,0.09,,---,0.39,VWS V14.01,2013-08-18 08:50:00,
2013-08-18 04:55:00,62.7,62.7,30.18,NW,304,0.0,0.0,100,0.11,,---,0.41,VWS V14.01,2013-08-18 08:55:00,
2013-08-18 05:00:00,62.7,62.7,30.17,NW,304,0.0,0.0,100,0.12,,---,0.44,VWS V14.01,2013-08-18 09:00:00,
2013-08-18 05:05:00,62.7,62.7,30.17,NW,304,0.0,0.0,100,0.14,,---,0.46,VWS V14.01,2013-08-18 09:05:00,
2013-08-18 05:10:00,62.7,62.7,30.17,NW,304,0.0,0.0,100,0.14,,---,0.46,VWS V14.01,2013-08-18 09:10:00,
2013-08-18 05:15:00,62.7,62.7,30.18,NW,304,0.0,0.0,100,0.13,,---,0.47,VWS V14.01,2013-08-18 09:15:00,
2013-08-18 05:20:00,62.7,62.7,30.18,NW,304,0.0,0.0,100,0.13,,---,0.47,VWS V14.01,2013-08-18 09:20:00,
2013-08-18 05:25:00,62.7,62.7,30.18,NW,304,0.0,0.0,100,0.13,,---,0.47,VWS V14.01,2013-08-18 09:25:00,
2013-08-18 05:30:00,62.7,62.7,30.18,NW,304,0.0,0.0,100,0.13,,---,0.49,VWS V14.01,2013-08-18 09:30:00,
2013-08-18 05:35:00,62.7,62.7,30.18,NW,304,0.0,0.0,100,0.15,,---,0.51,VWS V14.01,2013-08-18 09:35:00,
2013-08-18 05:40:00,62.6,62.6,30.18,NW,304,0.0,0.0,100,0.16,,---,0.52,VWS V14.01,2013-08-18 09:40:00,
2013-08-18 05:45:00,62.5,62.5,30.18,NW,304,0.0,0.0,100,0.15,,---,0.53,VWS V14.01,2013-08-18 09:45:00,
2013-08-18 05:50:00,62.5,62.5,30.18,NW,304,0.0,0.0,100,0.17,,---,0.55,VWS V14.01,2013-08-18 09:50:00,
2013-08-18 05:55:00,62.5,62.5,30.18,NW,304,0.0,0.0,100,0.19,,---,0.57,VWS V14.01,2013-08-18 09:55:00,
2013-08-18 06:00:00,62.4,62.4,30.18,NW,304,0.0,0.0,100,0.14,,---,0.58,VWS V14.01,2013-08-18 10:00:00,
2013-08-18 06:05:00,62.3,62.3,30.18,NW,304,0.0,0.0,100,0.17,,---,0.61,VWS V14.01,2013-08-18 10:05:00,
2013-08-18 06:10:00,62.3,62.3,30.18,NW,304,0.0,0.0,100,0.19,,---,0.63,VWS V14.01,2013-08-18 10:10:00,
2013-08-18 06:15:00,62.3,62.3,30.18,NW,304,0.0,0.0,100,0.18,,---,0.65,VWS V14.01,2013-08-18 10:15:00,
2013-08-18 06:20:00,62.3,62.3,30.18,NW,304,0.0,0.0,100,0.20,,---,0.67,VWS V14.01,2013-08-18 10:20:00,
2013-08-18 06:25:00,62.2,62.2,30.18,NW,304,0.0,0.0,100,0.22,,---,0.69,VWS V14.01,2013-08-18 10:25:00,
2013-08-18 06:30:00,62.2,62.2,30.19,NW,304,0.0,0.0,100,0.20,,---,0.69,VWS V14.01,2013-08-18 10:30:00,
2013-08-18 06:35:00,62.2,62.2,30.19,NW,304,0.0,0.0,100,0.20,,---,0.69,VWS V14.01,2013-08-18 10:35:00,
2013-08-18 06:40:00,62.2,62.2,30.19,NW,304,0.0,0.0,100,0.20,,---,0.69,VWS V14.01,2013-08-18 10:40:00,
2013-08-18 06:45:00,62.2,62.2,30.19,NW,304,0.0,0.0,100,0.17,,---,0.70,VWS V14.01,2013-08-18 10:45:00,
2013-08-18 06:51:00,62.1,62.1,30.19,NW,304,0.0,0.0,100,0.18,,---,0.71,VWS V14.01,2013-08-18 10:51:00,
2013-08-18 06:56:00,62.1,62.1,30.20,NW,304,0.0,0.0,100,0.18,,---,0.71,VWS V14.01,2013-08-18 10:56:00,
2013-08-18 07:01:00,62.1,62.1,30.20,NW,304,0.0,0.0,100,0.14,,---,0.72,VWS V14.01,2013-08-18 11:01:00,
2013-08-18 07:06:00,62.1,62.1,30.21,NW,304,0.0,1.0,100,0.14,,---,0.72,VWS V14.01,2013-08-18 11:06:00,
2013-08-18 07:11:00,62.1,62.1,30.21,NW,304,0.0,0.0,100,0.15,,---,0.73,VWS V14.01,2013-08-18 11:11:00,
2013-08-18 07:16:00,62.1,62.1,30.21,NW,304,0.0,1.0,100,0.08,,---,0.73,VWS V14.01,2013-08-18 11:16:00,
2013-08-18 07:21:00,62.1,62.1,30.21,NW,304,0.0,0.0,100,0.08,,---,0.73,VWS V14.01,2013-08-18 11:21:00,
2013-08-18 07:26:00,62.1,62.1,30.21,NW,304,0.0,0.0,100,0.09,,---,0.74,VWS V14.01,2013-08-18 11:26:00,
2013-08-18 07:31:00,62.0,62.0,30.21,NW,304,0.0,1.0,100,0.06,,---,0.75,VWS V14.01,2013-08-18 11:31:00,
2013-08-18 07:36:00,62.0,62.0,30.21,NW,304,0.0,0.0,100,0.06,,---,0.75,VWS V14.01,2013-08-18 11:36:00,
2013-08-18 07:41:00,62.0,62.0,30.21,NW,304,0.0,0.0,100,0.06,,---,0.75,VWS V14.01,2013-08-18 11:41:00,
2013-08-18 07:46:00,62.0,62.0,30.21,NW,304,0.0,0.0,100,0.06,,---,0.76,VWS V14.01,2013-08-18 11:46:00,
2013-08-18 07:51:00,62.0,62.0,30.21,NW,304,0.0,0.0,100,0.06,,---,0.76,VWS V14.01,2013-08-18 11:51:00,
2013-08-18 07:56:00,62.0,62.0,30.21,NW,304,0.0,0.0,100,0.07,,---,0.77,VWS V14.01,2013-08-18 11:56:00,
2013-08-18 08:01:00,62.0,62.0,30.21,NW,304,0.0,0.0,100,0.05,,---,0.77,VWS V14.01,2013-08-18 12:01:00,
2013-08-18 08:06:00,62.0,62.0,30.22,NW,304,0.0,1.0,100,0.05,,---,0.77,VWS V14.01,2013-08-18 12:06:00,
2013-08-18 08:11:00,62.0,62.0,30.22,NW,304,0.0,1.0,100,0.06,,---,0.78,VWS V14.01,2013-08-18 12:11:00,
2013-08-18 08:16:00,62.0,62.0,30.22,NW,304,0.0,0.0,100,0.06,,---,0.79,VWS V14.01,2013-08-18 12:16:00,
2013-08-18 08:21:00,62.0,62.0,30.22,NW,304,0.0,0.0,100,0.06,,---,0.79,VWS V14.01,2013-08-18 12:21:00,
2013-08-18 08:26:00,62.0,62.0,30.22,NW,304,0.0,0.0,100,0.06,,---,0.79,VWS V14.01,2013-08-18 12:26:00,
2013-08-18 08:31:00,62.0,62.0,30.22,NW,304,0.0,0.0,100,0.06,,---,0.80,VWS V14.01,2013-08-18 12:31:00,
2013-08-18 08:36:00,62.0,62.0,30.22,NW,304,0.0,0.0,100,0.07,,---,0.81,VWS V14.01,2013-08-18 12:36:00,
2013-08-18 08:41:00,62.1,62.1,30.22,NW,304,0.0,0.0,100,0.08,,---,0.82,VWS V14.01,2013-08-18 12:41:00,
2013-08-18 08:46:00,62.2,62.2,30.23,NW,304,0.0,0.0,100,0.07,,---,0.83,VWS V14.01,2013-08-18 12:46:00,
2013-08-18 08:51:00,62.3,62.3,30.23,NW,304,0.0,0.0,100,0.07,,---,0.83,VWS V14.01,2013-08-18 12:51:00,
2013-08-18 08:56:00,62.4,62.4,30.23,NW,304,0.0,0.0,100,0.08,,---,0.84,VWS V14.01,2013-08-18 12:56:00,
2013-08-18 09:01:00,62.5,62.5,30.23,NW,304,0.0,0.0,100,0.07,,---,0.84,VWS V14.01,2013-08-18 13:01:00,
2013-08-18 09:06:00,62.5,62.5,30.23,NW,304,0.0,0.0,100,0.07,,---,0.84,VWS V14.01,2013-08-18 13:06:00,
2013-08-18 09:11:00,62.6,62.6,30.23,NW,304,0.0,0.0,100,0.08,,---,0.85,VWS V14.01,2013-08-18 13:11:00,
2013-08-18 09:16:00,62.8,62.8,30.23,NW,304,0.0,0.0,100,0.07,,---,0.85,VWS V14.01,2013-08-18 13:16:00,
2013-08-18 09:21:00,62.9,62.9,30.22,NW,304,0.0,0.0,100,0.07,,---,0.85,VWS V14.01,2013-08-18 13:21:00,
2013-08-18 09:26:00,62.9,62.9,30.23,NW,304,0.0,0.0,100,0.07,,---,0.85,VWS V14.01,2013-08-18 13:26:00,
2013-08-18 09:31:00,63.0,63.0,30.23,NW,304,0.0,0.0,100,0.05,,---,0.85,VWS V14.01,2013-08-18 13:31:00,
2013-08-18 09:36:00,63.1,63.1,30.23,NW,304,0.0,0.0,100,0.06,,---,0.86,VWS V14.01,2013-08-18 13:36:00,
2013-08-18 09:41:00,63.1,63.1,30.23,NW,304,0.0,0.0,100,0.06,,---,0.86,VWS V14.01,2013-08-18 13:41:00,
2013-08-18 09:46:00,63.1,63.1,30.23,NW,304,0.0,0.0,100,0.03,,---,0.86,VWS V14.01,2013-08-18 13:46:00,
2013-08-18 09:51:00,63.2,63.2,30.23,NW,304,0.0,0.0,100,0.04,,---,0.87,VWS V14.01,2013-08-18 13:51:00,
2013-08-18 09:56:00,63.2,63.2,30.24,NW,304,0.0,0.0,100,0.04,,---,0.87,VWS V14.01,2013-08-18 13:56:00,
2013-08-18 10:01:00,63.3,63.3,30.24,NW,304,0.0,0.0,100,0.03,,---,0.87,VWS V14.01,2013-08-18 14:01:00,
2013-08-18 10:06:00,63.4,63.4,30.23,NW,304,0.0,0.0,100,0.03,,---,0.87,VWS V14.01,2013-08-18 14:06:00,
2013-08-18 10:11:00,63.4,63.4,30.24,NW,304,0.0,0.0,100,0.04,,---,0.88,VWS V14.01,2013-08-18 14:11:00,
2013-08-18 10:16:00,63.5,63.5,30.24,NW,304,0.0,0.0,100,0.03,,---,0.88,VWS V14.01,2013-08-18 14:16:00,
2013-08-18 10:21:00,63.6,63.6,30.24,NW,304,0.0,0.0,100,0.03,,---,0.88,VWS V14.01,2013-08-18 14:21:00,
2013-08-18 10:26:00,63.7,63.7,30.25,NW,304,0.0,0.0,100,0.03,,---,0.88,VWS V14.01,2013-08-18 14:26:00,
2013-08-18 10:31:00,63.7,63.7,30.25,NW,304,0.0,0.0,100,0.04,,---,0.89,VWS V14.01,2013-08-18 14:31:00,
2013-08-18 10:36:00,63.7,63.7,30.25,NW,304,0.0,0.0,100,0.04,,---,0.89,VWS V14.01,2013-08-18 14:36:00,
2013-08-18 10:41:00,63.8,63.8,30.25,NW,304,0.0,0.0,100,0.04,,---,0.89,VWS V14.01,2013-08-18 14:41:00,
2013-08-18 10:46:00,63.8,63.8,30.25,NW,304,0.0,0.0,100,0.03,,---,0.89,VWS V14.01,2013-08-18 14:46:00,
2013-08-18 10:51:00,63.8,63.8,30.25,NW,304,0.0,0.0,100,0.03,,---,0.89,VWS V14.01,2013-08-18 14:51:00,
2013-08-18 10:56:00,63.9,63.9,30.25,NW,304,0.0,0.0,100,0.03,,---,0.89,VWS V14.01,2013-08-18 14:56:00,
2013-08-18 11:01:00,63.9,63.9,30.25,NW,304,0.0,0.0,100,0.02,,---,0.89,VWS V14.01,2013-08-18 15:01:00,
2013-08-18 11:06:00,64.0,64.0,30.25,NW,304,0.0,0.0,100,0.03,,---,0.90,VWS V14.01,2013-08-18 15:06:00,
2013-08-18 11:11:00,64.1,64.1,30.25,NW,304,0.0,0.0,100,0.03,,---,0.90,VWS V14.01,2013-08-18 15:11:00,
2013-08-18 11:15:00,64.2,64.2,30.25,NW,304,0.0,0.0,100,0.02,,---,0.90,VWS V14.01,2013-08-18 15:15:00,
2013-08-18 11:20:00,64.2,64.2,30.25,NW,304,0.0,0.0,100,0.02,,---,0.90,VWS V14.01,2013-08-18 15:20:00,
2013-08-18 11:25:00,64.3,64.3,30.25,NW,304,0.0,0.0,100,0.02,,---,0.90,VWS V14.01,2013-08-18 15:25:00,
2013-08-18 11:30:00,64.3,64.3,30.25,NW,304,0.0,0.0,100,0.01,,---,0.90,VWS V14.01,2013-08-18 15:30:00,
2013-08-18 11:35:00,64.5,64.5,30.25,NW,304,0.0,0.0,100,0.01,,---,0.90,VWS V14.01,2013-08-18 15:35:00,
2013-08-18 11:40:00,64.6,64.6,30.25,NW,304,0.0,0.0,100,0.01,,---,0.90,VWS V14.01,2013-08-18 15:40:00,
2013-08-18 11:45:00,64.7,64.7,30.25,NW,304,0.0,0.0,100,0.01,,---,0.90,VWS V14.01,2013-08-18 15:45:00,
2013-08-18 11:50:00,64.8,64.8,30.25,NW,304,0.0,0.0,100,0.01,,---,0.90,VWS V14.01,2013-08-18 15:50:00,
2013-08-18 11:55:00,64.9,64.9,30.25,NW,304,0.0,0.0,100,0.01,,---,0.90,VWS V14.01,2013-08-18 15:55:00,
2013-08-18 12:00:00,65.0,65.0,30.25,NW,304,0.0,0.0,100,0.01,,---,0.90,VWS V14.01,2013-08-18 16:00:00,
2013-08-18 12:05:00,65.1,65.1,30.25,NW,304,0.0,0.0,100,0.01,,---,0.90,VWS V14.01,2013-08-18 16:05:00,
2013-08-18 12:10:00,65.1,65.1,30.25,NW,304,0.0,0.0,100,0.01,,---,0.90,VWS V14.01,2013-08-18 16:10:00,
2013-08-18 12:15:00,65.1,65.1,30.25,NW,304,0.0,0.0,100,0.00,,---,0.90,VWS V14.01,2013-08-18 16:15:00,
2013-08-18 12:20:00,65.2,65.2,30.25,NW,304,0.0,0.0,100,0.00,,---,0.90,VWS V14.01,2013-08-18 16:20:00,
2013-08-18 12:25:00,65.4,65.4,30.25,NW,304,0.0,0.0,100,0.00,,---,0.90,VWS V14.01,2013-08-18 16:25:00,
2013-08-18 12:30:00,65.5,65.5,30.25,NW,304,0.0,0.0,100,0.00,,---,0.90,VWS V14.01,2013-08-18 16:30:00,
2013-08-18 12:35:00,65.5,65.5,30.24,NW,304,0.0,0.0,100,0.00,,---,0.90,VWS V14.01,2013-08-18 16:35:00,
2013-08-18 12:40:00,65.6,65.6,30.24,NW,304,0.0,0.0,100,0.00,,---,0.90,VWS V14.01,2013-08-18 16:40:00,
2013-08-18 12:45:00,65.7,65.7,30.24,NW,304,0.0,0.0,100,0.00,,---,0.90,VWS V14.01,2013-08-18 16:45:00,
2013-08-18 12:50:00,65.6,65.6,30.24,NW,304,0.0,0.0,100,0.00,,---,0.90,VWS V14.01,2013-08-18 16:50:00,
2013-08-18 12:55:00,65.6,65.6,30.24,NW,304,0.0,1.0,100,0.00,,---,0.90,VWS V14.01,2013-08-18 16:55:00,
2013-08-18 13:00:00,65.7,65.7,30.24,NW,304,0.0,0.0,100,0.00,,---,0.90,VWS V14.01,2013-08-18 17:00:00,
2013-08-18 13:05:00,65.5,65.5,30.24,NW,304,0.0,0.0,100,0.00,,---,0.90,VWS V14.01,2013-08-18 17:05:00,
2013-08-18 13:10:00,65.4,65.1,30.24,NW,304,0.0,0.0,99,0.00,,---,0.90,VWS V14.01,2013-08-18 17:10:00,
2013-08-18 13:15:00,65.2,64.9,30.24,NW,304,0.0,0.0,99,0.00,,---,0.90,VWS V14.01,2013-08-18 17:15:00,
2013-08-18 13:20:00,65.2,65.2,30.24,NW,304,0.0,1.0,100,0.00,,---,0.90,VWS V14.01,2013-08-18 17:20:00,
2013-08-18 13:25:00,65.2,65.2,30.24,NW,304,0.0,0.0,100,0.00,,---,0.90,VWS V14.01,2013-08-18 17:25:00,
2013-08-18 13:30:00,65.3,65.3,30.25,NW,304,0.0,0.0,100,0.00,,---,0.90,VWS V14.01,2013-08-18 17:30:00,
2013-08-18 13:35:00,65.4,65.4,30.25,NW,304,0.0,0.0,100,0.00,,---,0.90,VWS V14.01,2013-08-18 17:35:00,
2013-08-18 13:40:00,65.6,65.6,30.25,NW,304,0.0,0.0,100,0.00,,---,0.90,VWS V14.01,2013-08-18 17:40:00,
2013-08-18 13:45:00,65.7,65.7,30.25,NW,304,0.0,0.0,100,0.00,,---,0.90,VWS V14.01,2013-08-18 17:45:00,
2013-08-18 13:50:00,65.9,65.9,30.25,SW,229,0.0,1.0,100,0.01,,---,0.91,VWS V14.01,2013-08-18 17:50:00,
2013-08-18 13:55:00,66.0,66.0,30.24,SW,215,0.0,1.0,100,0.01,,---,0.91,VWS V14.01,2013-08-18 17:55:00,
2013-08-18 14:00:00,66.1,66.1,30.24,SSE,148,0.0,1.0,100,0.01,,---,0.91,VWS V14.01,2013-08-18 18:00:00,
2013-08-18 14:05:00,66.3,66.3,30.24,SSE,148,0.0,0.0,100,0.01,,---,0.91,VWS V14.01,2013-08-18 18:05:00,
2013-08-18 14:10:00,66.6,66.6,30.24,SSE,148,0.0,1.0,100,0.01,,---,0.91,VWS V14.01,2013-08-18 18:10:00,
2013-08-18 14:15:00,66.9,66.9,30.24,SSE,148,0.0,0.0,100,0.01,,---,0.91,VWS V14.01,2013-08-18 18:15:00,
2013-08-18 14:20:00,66.9,66.6,30.23,SSE,148,0.0,0.0,99,0.01,,---,0.91,VWS V14.01,2013-08-18 18:20:00,
2013-08-18 14:25:00,67.0,66.7,30.23,SSE,148,0.0,0.0,99,0.01,,---,0.91,VWS V14.01,2013-08-18 18:25:00,
2013-08-18 14:30:00,66.9,66.6,30.23,SSE,148,0.0,0.0,99,0.01,,---,0.91,VWS V14.01,2013-08-18 18:30:00,
2013-08-18 14:35:00,66.8,66.2,30.23,SSE,148,0.0,0.0,98,0.01,,---,0.91,VWS V14.01,2013-08-18 18:35:00,
2013-08-18 14:40:00,66.7,66.1,30.23,SSE,148,0.0,0.0,98,0.01,,---,0.91,VWS V14.01,2013-08-18 18:40:00,
2013-08-18 14:45:00,66.7,66.1,30.23,SSE,148,0.0,1.0,98,0.01,,---,0.91,VWS V14.01,2013-08-18 18:45:00,
2013-08-18 14:50:00,66.7,66.1,30.23,SSE,148,0.0,0.0,98,0.01,,---,0.91,VWS V14.01,2013-08-18 18:50:00,
2013-08-18 14:55:00,66.7,66.1,30.22,SSE,148,0.0,0.0,98,0.01,,---,0.91,VWS V14.01,2013-08-18 18:55:00,
2013-08-18 15:00:00,66.9,66.6,30.21,SSE,148,0.0,0.0,99,0.00,,---,0.91,VWS V14.01,2013-08-18 19:00:00,
2013-08-18 15:05:00,67.1,66.5,30.19,ESE,108,0.0,0.0,98,0.00,,---,0.91,VWS V14.01,2013-08-18 19:05:00,
2013-08-18 15:10:00,67.2,66.6,30.18,NE,56,0.0,1.0,98,0.00,,---,0.91,VWS V14.01,2013-08-18 19:10:00,
2013-08-18 15:15:00,67.2,66.6,30.18,NNW,332,0.0,1.0,98,0.00,,---,0.91,VWS V14.01,2013-08-18 19:15:00,
2013-08-18 15:20:00,67.4,66.8,30.20,NW,306,0.0,1.0,98,0.00,,---,0.91,VWS V14.01,2013-08-18 19:20:00,
2013-08-18 15:25:00,67.6,66.4,30.20,NW,306,0.0,0.0,96,0.00,,---,0.91,VWS V14.01,2013-08-18 19:25:00,
2013-08-18 15:30:00,67.7,66.2,30.20,NW,306,0.0,0.0,95,0.00,,---,0.91,VWS V14.01,2013-08-18 19:30:00,
2013-08-18 15:35:00,67.9,66.7,30.20,NW,306,0.0,0.0,96,0.00,,---,0.91,VWS V14.01,2013-08-18 19:35:00,
2013-08-18 15:40:00,68.0,66.8,30.20,NW,306,0.0,0.0,96,0.00,,---,0.91,VWS V14.01,2013-08-18 19:40:00,
2013-08-18 15:45:00,68.2,66.7,30.20,NW,306,0.0,0.0,95,0.00,,---,0.91,VWS V14.01,2013-08-18 19:45:00,
2013-08-18 15:50:00,68.5,67.3,30.20,NW,306,0.0,0.0,96,0.00,,---,0.91,VWS V14.01,2013-08-18 19:50:00,
2013-08-18 15:55:00,68.7,67.5,30.20,NW,306,0.0,0.0,96,0.00,,---,0.91,VWS V14.01,2013-08-18 19:55:00,
2013-08-18 16:00:00,68.7,66.9,30.20,NW,306,0.0,0.0,94,0.00,,---,0.91,VWS V14.01,2013-08-18 20:00:00,
2013-08-18 16:05:00,68.8,67.0,30.20,NW,306,0.0,0.0,94,0.00,,---,0.91,VWS V14.01,2013-08-18 20:05:00,
2013-08-18 16:10:00,68.9,67.1,30.20,NW,306,0.0,0.0,94,0.00,,---,0.91,VWS V14.01,2013-08-18 20:10:00,
2013-08-18 16:15:00,68.9,66.8,30.20,NW,306,0.0,0.0,93,0.00,,---,0.91,VWS V14.01,2013-08-18 20:15:00,
2013-08-18 16:20:00,68.9,66.8,30.20,NW,306,0.0,0.0,93,0.00,,---,0.91,VWS V14.01,2013-08-18 20:20:00,
2013-08-18 16:25:00,69.0,66.9,30.19,NW,306,0.0,0.0,93,0.00,,---,0.91,VWS V14.01,2013-08-18 20:25:00,
2013-08-18 16:30:00,69.1,67.6,30.20,NW,306,0.0,0.0,95,0.00,,---,0.91,VWS V14.01,2013-08-18 20:30:00,
2013-08-18 16:35:00,69.2,67.7,30.20,NW,306,0.0,0.0,95,0.00,,---,0.91,VWS V14.01,2013-08-18 20:35:00,
2013-08-18 16:40:00,69.1,67.3,30.21,NW,306,0.0,0.0,94,0.00,,---,0.91,VWS V14.01,2013-08-18 20:40:00,
2013-08-18 16:45:00,69.1,67.0,30.21,NW,306,0.0,0.0,93,0.00,,---,0.91,VWS V14.01,2013-08-18 20:45:00,
2013-08-18 16:50:00,68.9,66.8,30.21,NW,306,0.0,0.0,93,0.00,,---,0.91,VWS V14.01,2013-08-18 20:50:00,
2013-08-18 16:55:00,68.9,67.1,30.21,NW,306,0.0,0.0,94,0.00,,---,0.91,VWS V14.01,2013-08-18 20:55:00,
2013-08-18 17:00:00,68.8,67.0,30.20,NW,306,0.0,0.0,94,0.00,,---,0.91,VWS V14.01,2013-08-18 21:00:00,
2013-08-18 17:05:00,68.8,67.3,30.20,NW,306,0.0,0.0,95,0.00,,---,0.91,VWS V14.01,2013-08-18 21:05:00,
2013-08-18 17:10:00,68.8,67.3,30.20,NW,306,0.0,0.0,95,0.00,,---,0.91,VWS V14.01,2013-08-18 21:10:00,
2013-08-18 17:15:00,68.8,67.3,30.20,NW,306,0.0,0.0,95,0.00,,---,0.91,VWS V14.01,2013-08-18 21:15:00,
2013-08-18 17:20:00,68.8,67.3,30.21,NW,306,0.0,0.0,95,0.00,,---,0.91,VWS V14.01,2013-08-18 21:20:00,
2013-08-18 17:25:00,68.6,67.1,30.20,NW,306,0.0,0.0,95,0.00,,---,0.91,VWS V14.01,2013-08-18 21:25:00,
2013-08-18 17:30:00,68.4,66.9,30.20,NW,306,0.0,0.0,95,0.00,,---,0.91,VWS V14.01,2013-08-18 21:30:00,
2013-08-18 17:35:00,68.1,66.6,30.20,NW,306,0.0,0.0,95,0.02,,---,0.93,VWS V14.01,2013-08-18 21:35:00,
2013-08-18 17:40:00,67.9,66.4,30.19,NW,306,0.0,0.0,95,0.02,,---,0.93,VWS V14.01,2013-08-18 21:40:00,
2013-08-18 17:46:00,67.7,66.8,30.19,NW,306,0.0,0.0,97,0.02,,---,0.93,VWS V14.01,2013-08-18 21:46:00,
2013-08-18 17:51:00,67.6,66.7,30.20,NW,306,0.0,0.0,97,0.02,,---,0.93,VWS V14.01,2013-08-18 21:51:00,
2013-08-18 17:56:00,67.4,66.5,30.20,NW,306,0.0,0.0,97,0.02,,---,0.93,VWS V14.01,2013-08-18 21:56:00,
2013-08-18 18:01:00,67.2,66.3,30.20,NW,306,0.0,0.0,97,0.02,,---,0.93,VWS V14.01,2013-08-18 22:01:00,
2013-08-18 18:06:00,67.1,66.2,30.20,NW,306,0.0,0.0,97,0.02,,---,0.93,VWS V14.01,2013-08-18 22:06:00,
2013-08-18 18:11:00,67.0,66.1,30.20,WNW,292,0.0,1.0,97,0.02,,---,0.93,VWS V14.01,2013-08-18 22:11:00,
2013-08-18 18:16:00,67.0,66.1,30.20,WNW,292,0.0,0.0,97,0.02,,---,0.93,VWS V14.01,2013-08-18 22:16:00,
2013-08-18 18:21:00,66.9,66.0,30.20,WNW,292,0.0,0.0,97,0.02,,---,0.93,VWS V14.01,2013-08-18 22:21:00,
2013-08-18 18:26:00,67.0,66.4,30.20,SW,231,0.0,1.0,98,0.02,,---,0.93,VWS V14.01,2013-08-18 22:26:00,
2013-08-18 18:31:00,67.0,66.4,30.20,SW,231,0.0,0.0,98,0.02,,---,0.93,VWS V14.01,2013-08-18 22:31:00,
2013-08-18 18:36:00,67.0,66.4,30.20,SW,231,0.0,0.0,98,0.02,,---,0.93,VWS V14.01,2013-08-18 22:36:00,
2013-08-18 18:41:00,67.0,66.4,30.20,South,186,0.0,0.0,98,0.02,,---,0.93,VWS V14.01,2013-08-18 22:41:00,
2013-08-18 18:46:00,66.9,66.3,30.20,SSE,163,2.0,3.0,98,0.00,,---,0.93,VWS V14.01,2013-08-18 22:46:00,
2013-08-18 18:51:00,66.9,66.0,30.20,SSE,163,0.0,2.0,97,0.00,,---,0.93,VWS V14.01,2013-08-18 22:51:00,
2013-08-18 18:56:00,66.8,66.2,30.19,SSE,163,0.0,0.0,98,0.00,,---,0.93,VWS V14.01,2013-08-18 22:56:00,
2013-08-18 19:01:00,66.7,65.8,30.19,SSE,163,0.0,1.0,97,0.00,,---,0.93,VWS V14.01,2013-08-18 23:01:00,
2013-08-18 19:06:00,66.6,65.7,30.19,SSE,163,0.0,0.0,97,0.00,,---,0.93,VWS V14.01,2013-08-18 23:06:00,
2013-08-18 19:11:00,66.5,65.9,30.19,SSE,163,0.0,0.0,98,0.00,,---,0.93,VWS V14.01,2013-08-18 23:11:00,
2013-08-18 19:16:00,66.5,65.9,30.19,SSE,163,0.0,0.0,98,0.00,,---,0.93,VWS V14.01,2013-08-18 23:16:00,
2013-08-18 19:21:00,66.3,65.4,30.19,SSE,163,0.0,0.0,97,0.01,,---,0.94,VWS V14.01,2013-08-18 23:21:00,
2013-08-18 19:26:00,66.3,65.7,30.20,SSE,163,0.0,0.0,98,0.01,,---,0.94,VWS V14.01,2013-08-18 23:26:00,
2013-08-18 19:31:00,66.2,65.6,30.20,SSE,163,0.0,0.0,98,0.01,,---,0.94,VWS V14.01,2013-08-18 23:31:00,
2013-08-18 19:36:00,66.1,65.5,30.20,SSE,163,0.0,0.0,98,0.01,,---,0.94,VWS V14.01,2013-08-18 23:36:00,
2013-08-18 19:41:00,66.0,65.4,30.19,SSE,163,0.0,0.0,98,0.01,,---,0.94,VWS V14.01,2013-08-18 23:41:00,
2013-08-18 19:46:00,66.0,65.4,30.20,SSE,163,0.0,0.0,98,0.01,,---,0.94,VWS V14.01,2013-08-18 23:46:00,
2013-08-18 19:51:00,65.9,65.3,30.20,SSE,163,0.0,0.0,98,0.01,,---,0.94,VWS V14.01,2013-08-18 23:51:00,
2013-08-18 19:57:00,65.8,65.2,30.20,SSE,163,0.0,0.0,98,0.01,,---,0.94,VWS V14.01,2013-08-18 23:57:00,
2013-08-18 20:02:00,65.7,65.1,30.20,SSE,163,0.0,0.0,98,0.01,,---,0.94,VWS V14.01,2013-08-19 00:02:00,
2013-08-18 20:07:00,65.6,65.0,30.20,SSE,163,0.0,0.0,98,0.01,,---,0.94,VWS V14.01,2013-08-19 00:07:00,
2013-08-18 20:12:00,65.5,64.9,30.21,SSE,163,0.0,0.0,98,0.01,,---,0.94,VWS V14.01,2013-08-19 00:12:00,
2013-08-18 20:17:00,65.4,64.8,30.21,SSE,163,0.0,0.0,98,0.01,,---,0.94,VWS V14.01,2013-08-19 00:17:00,
2013-08-18 20:22:00,65.4,64.8,30.22,SSE,163,0.0,0.0,98,0.01,,---,0.94,VWS V14.01,2013-08-19 00:22:00,
2013-08-18 20:27:00,65.3,64.7,30.22,SSE,163,0.0,0.0,98,0.01,,---,0.94,VWS V14.01,2013-08-19 00:27:00,
2013-08-18 20:32:00,65.3,64.7,30.22,SSE,163,0.0,0.0,98,0.00,,---,0.94,VWS V14.01,2013-08-19 00:32:00,
2013-08-18 20:37:00,65.3,64.7,30.22,SSE,163,0.0,0.0,98,0.00,,---,0.94,VWS V14.01,2013-08-19 00:37:00,
2013-08-18 20:42:00,65.3,64.7,30.22,SSE,163,0.0,0.0,98,0.00,,---,0.94,VWS V14.01,2013-08-19 00:42:00,
2013-08-18 20:47:00,65.2,64.6,30.22,SSE,163,0.0,0.0,98,0.00,,---,0.94,VWS V14.01,2013-08-19 00:47:00,
2013-08-18 20:52:00,65.2,64.9,30.22,SSE,163,0.0,0.0,99,0.00,,---,0.94,VWS V14.01,2013-08-19 00:52:00,
2013-08-18 20:57:00,65.2,64.9,30.23,SSE,163,0.0,0.0,99,0.00,,---,0.94,VWS V14.01,2013-08-19 00:57:00,
2013-08-18 21:02:00,65.2,64.9,30.23,SSE,163,0.0,1.0,99,0.00,,---,0.94,VWS V14.01,2013-08-19 01:02:00,
2013-08-18 21:07:00,65.1,64.8,30.23,SSE,163,0.0,0.0,99,0.00,,---,0.94,VWS V14.01,2013-08-19 01:07:00,
2013-08-18 21:12:00,65.1,64.8,30.23,SSE,163,0.0,0.0,99,0.00,,---,0.94,VWS V14.01,2013-08-19 01:12:00,
2013-08-18 21:17:00,65.1,64.8,30.23,SSE,161,0.0,1.0,99,0.00,,---,0.94,VWS V14.01,2013-08-19 01:17:00,
2013-08-18 21:22:00,65.1,64.8,30.23,SSE,161,0.0,1.0,99,0.00,,---,0.94,VWS V14.01,2013-08-19 01:22:00,
2013-08-18 21:27:00,65.0,64.7,30.23,SSE,160,0.0,1.0,99,0.00,,---,0.94,VWS V14.01,2013-08-19 01:27:00,
2013-08-18 21:32:00,65.0,64.7,30.23,SSE,160,0.0,1.0,99,0.00,,---,0.94,VWS V14.01,2013-08-19 01:32:00,
2013-08-18 21:37:00,65.0,64.7,30.23,SSE,160,0.0,0.0,99,0.00,,---,0.94,VWS V14.01,2013-08-19 01:37:00,
2013-08-18 21:42:00,65.0,64.7,30.23,SSE,160,0.0,0.0,99,0.00,,---,0.94,VWS V14.01,2013-08-19 01:42:00,
2013-08-18 21:47:00,65.0,64.7,30.23,SSE,160,0.0,0.0,99,0.00,,---,0.94,VWS V14.01,2013-08-19 01:47:00,
2013-08-18 21:51:00,65.0,64.7,30.23,SSE,160,0.0,0.0,99,0.00,,---,0.94,VWS V14.01,2013-08-19 01:51:00,
2013-08-18 21:56:00,65.0,64.7,30.24,SSE,160,0.0,0.0,99,0.00,,---,0.94,VWS V14.01,2013-08-19 01:56:00,
2013-08-18 22:01:00,64.9,64.6,30.24,SSE,160,0.0,0.0,99,0.00,,---,0.94,VWS V14.01,2013-08-19 02:01:00,
2013-08-18 22:06:00,64.9,64.6,30.24,SSE,160,0.0,0.0,99,0.00,,---,0.94,VWS V14.01,2013-08-19 02:06:00,
2013-08-18 22:11:00,64.8,64.5,30.24,SSE,160,0.0,0.0,99,0.00,,---,0.94,VWS V14.01,2013-08-19 02:11:00,
2013-08-18 22:16:00,64.7,64.4,30.24,SSE,160,0.0,0.0,99,0.00,,---,0.94,VWS V14.01,2013-08-19 02:16:00,
2013-08-18 22:21:00,64.7,64.4,30.24,SSE,160,0.0,0.0,99,0.00,,---,0.94,VWS V14.01,2013-08-19 02:21:00,
2013-08-18 22:26:00,64.7,64.4,30.24,SSE,160,0.0,0.0,99,0.00,,---,0.94,VWS V14.01,2013-08-19 02:26:00,
2013-08-18 22:31:00,64.6,64.3,30.24,SSE,160,0.0,0.0,99,0.00,,---,0.94,VWS V14.01,2013-08-19 02:31:00,
2013-08-18 22:36:00,64.6,64.3,30.24,SSE,160,0.0,0.0,99,0.00,,---,0.94,VWS V14.01,2013-08-19 02:36:00,
2013-08-18 22:41:00,64.5,64.2,30.23,SSE,160,0.0,0.0,99,0.00,,---,0.94,VWS V14.01,2013-08-19 02:41:00,
2013-08-18 22:46:00,64.5,64.2,30.24,SSE,160,0.0,0.0,99,0.00,,---,0.94,VWS V14.01,2013-08-19 02:46:00,
2013-08-18 22:51:00,64.5,64.2,30.24,SSE,160,0.0,0.0,99,0.00,,---,0.94,VWS V14.01,2013-08-19 02:51:00,
2013-08-18 22:56:00,64.5,64.2,30.23,SSE,160,0.0,0.0,99,0.00,,---,0.94,VWS V14.01,2013-08-19 02:56:00,
2013-08-18 23:01:00,64.5,64.2,30.24,SSE,160,0.0,0.0,99,0.00,,---,0.94,VWS V14.01,2013-08-19 03:01:00,
2013-08-18 23:06:00,64.4,64.1,30.24,SSE,160,0.0,0.0,99,0.00,,---,0.94,VWS V14.01,2013-08-19 03:06:00,
2013-08-18 23:11:00,64.4,64.1,30.24,SSE,160,0.0,0.0,99,0.00,,---,0.94,VWS V14.01,2013-08-19 03:11:00,
2013-08-18 23:16:00,64.4,64.1,30.24,SSE,160,0.0,0.0,99,0.00,,---,0.94,VWS V14.01,2013-08-19 03:16:00,
2013-08-18 23:21:00,64.4,64.1,30.24,SSE,160,0.0,0.0,99,0.00,,---,0.94,VWS V14.01,2013-08-19 03:21:00,
2013-08-18 23:26:00,64.4,64.1,30.24,SSE,160,0.0,0.0,99,0.00,,---,0.94,VWS V14.01,2013-08-19 03:26:00,
2013-08-18 23:31:00,64.4,64.4,30.24,SSE,160,0.0,0.0,100,0.00,,---,0.94,VWS V14.01,2013-08-19 03:31:00,
2013-08-18 23:36:00,64.3,64.3,30.23,SSE,160,0.0,0.0,100,0.00,,---,0.94,VWS V14.01,2013-08-19 03:36:00,
2013-08-18 23:41:00,64.3,64.0,30.23,SSE,160,0.0,0.0,99,0.00,,---,0.94,VWS V14.01,2013-08-19 03:41:00,
2013-08-18 23:46:00,64.3,64.0,30.23,SSE,160,0.0,0.0,99,0.00,,---,0.94,VWS V14.01,2013-08-19 03:46:00,
2013-08-18 23:51:00,64.2,63.9,30.23,SSE,160,0.0,0.0,99,0.00,,---,0.94,VWS V14.01,2013-08-19 03:51:00,
2013-08-18 23:56:00,64.2,63.9,30.23,SSE,160,0.0,0.0,99,0.00,,---,0.94,VWS V14.01,2013-08-19 03:56:00,